Time;durP1;ratioP1;P1;durP2;ratioP2;P2;SDS_P1;SDS_P2;PMS_P1;PMS_P2;Temp;Humidity;BMP_temperature;BMP_pressure;BME280_temperature;BME280_humidity;BME280_pressure;Samples;Min_cycle;Max_cycle;Signal;HPM_P1;HPM_P2
2021/12/16 00:09:58;;;;;;;;;;;;;;;27.15;59.23;97877.25;610464;232;65318;-69
2021/12/16 00:31:34;;;;;;;;;;;;;;;27.09;56.81;97883.82;610533;232;65226;-69
2021/12/16 00:34:04;;;;;;;;;;;;;;;27.07;59.70;97888.70;610063;232;66683;-62
2021/12/16 00:36:30;;;;;;;;;;;;;;;27.06;60.26;97889.77;610304;232;62497;-69
2021/12/16 00:38:58;;;;;;;;;;;;;;;27.07;61.21;97890.59;610505;232;67174;-69
2021/12/16 00:41:25;;;;;;;;;;;;;;;27.05;62.32;97890.88;610510;232;64340;-69
2021/12/16 00:44:02;;;;;;;;;;;;;;;27.07;59.70;97890.59;610472;232;64877;-69
2021/12/16 00:46:56;;;;;;;;;;;;;;;27.05;60.65;97890.08;610188;232;66807;-69
2021/12/16 00:54:22;;;;;;;;;;;;;;;27.01;62.96;97881.77;610480;232;67282;-62
2021/12/16 00:56:55;;;;;;;;;;;;;;;27.00;60.04;97882.84;610456;232;67558;-62
2021/12/16 00:59:21;;;;;;;;;;;;;;;26.99;59.94;97889.34;610313;232;65988;-62
2021/12/16 01:02:05;;;;;;;;;;;;;;;26.97;58.58;97883.42;610490;232;64627;-69
2021/12/16 01:07:11;;;;;;;;;;;;;;;26.98;58.58;97883.14;610427;232;65786;-70
2021/12/16 01:34:33;;;;;;;;;;;;;;;26.86;58.47;97863.07;610455;232;64371;-62
2021/12/16 01:37:27;;;;;;;;;;;;;;;26.86;60.19;97853.08;609463;232;68302;-68
2021/12/16 01:42:35;;;;;;;;;;;;;;;26.88;59.84;97860.89;610452;232;64775;-62
2021/12/16 01:47:51;;;;;;;;;;;;;;;26.85;58.88;97854.18;610525;232;66009;-62
2021/12/16 01:50:15;;;;;;;;;;;;;;;26.84;55.90;97846.37;609968;232;65392;-62
2021/12/16 01:54:03;;;;;;;;;;;;;;;26.82;58.36;97845.84;610355;230;66886;-69
2021/12/16 01:55:28;;;;;;;;;;;;;;;26.78;61.44;97841.03;607904;232;65260;-69
2021/12/16 01:57:58;;;;;;;;;;;;;;;26.79;58.55;97842.66;610128;232;66139;-69
2021/12/16 02:00:27;;;;;;;;;;;;;;;26.81;60.93;97844.25;610333;232;67106;-69
2021/12/16 02:03:00;;;;;;;;;;;;;;;26.78;58.53;97845.63;609631;232;65119;-69
2021/12/16 02:05:41;;;;;;;;;;;;;;;26.79;58.39;97845.35;610308;232;64743;-68
2021/12/16 02:10:41;;;;;;;;;;;;;;;26.77;58.57;97844.03;610457;232;65510;-70
2021/12/16 02:27:28;;;;;;;;;;;;;;;26.72;58.04;97833.31;610452;232;65551;-69
2021/12/16 02:37:43;;;;;;;;;;;;;;;26.68;62.64;97835.78;610452;232;64534;-69
2021/12/16 02:40:06;;;;;;;;;;;;;;;26.67;60.06;97844.95;610194;232;67181;-69
2021/12/16 02:42:50;;;;;;;;;;;;;;;26.65;60.05;97841.73;610409;232;70817;-69
2021/12/16 02:50:26;;;;;;;;;;;;;;;26.62;60.08;97845.00;610443;232;65281;-69
2021/12/16 02:52:53;;;;;;;;;;;;;;;26.60;61.28;97844.52;610468;232;65073;-69
2021/12/16 02:55:22;;;;;;;;;;;;;;;26.59;62.18;97840.19;610487;232;65606;-69
2021/12/16 02:58:00;;;;;;;;;;;;;;;26.59;62.15;97842.89;610443;230;65724;-68
2021/12/16 03:00:19;;;;;;;;;;;;;;;26.59;59.72;97836.70;610082;232;68051;-69
2021/12/16 03:02:48;;;;;;;;;;;;;;;26.57;61.97;97839.67;610448;232;66946;-69
2021/12/16 03:05:19;;;;;;;;;;;;;;;26.58;60.95;97845.89;610491;232;66232;-69
2021/12/16 03:07:46;;;;;;;;;;;;;;;26.55;62.33;97841.88;610457;232;66771;-69
2021/12/16 03:13:00;;;;;;;;;;;;;;;26.54;61.92;97837.55;606196;232;65229;-69
2021/12/16 03:18:11;;;;;;;;;;;;;;;26.50;62.87;97834.61;610499;232;64521;-69
2021/12/16 03:20:42;;;;;;;;;;;;;;;26.49;63.42;97845.66;610073;232;63893;-69
2021/12/16 03:36:29;;;;;;;;;;;;;;;26.44;60.50;97845.75;610464;232;63249;-68
2021/12/16 03:38:58;;;;;;;;;;;;;;;26.42;62.66;97848.72;610450;232;67590;-69
2021/12/16 03:41:25;;;;;;;;;;;;;;;26.41;63.55;97851.69;610478;232;67045;-68
2021/12/16 03:43:55;;;;;;;;;;;;;;;26.41;62.46;97841.73;610442;232;65073;-69
2021/12/16 03:46:28;;;;;;;;;;;;;;;26.40;64.65;97844.70;610492;232;67204;-68
2021/12/16 03:49:09;;;;;;;;;;;;;;;26.39;61.92;97848.49;610491;232;67398;-61
2021/12/16 03:51:44;;;;;;;;;;;;;;;26.38;65.04;97863.03;610468;232;64995;-69
2021/12/16 03:54:14;;;;;;;;;;;;;;;26.37;64.55;97853.36;610359;232;67686;-68
2021/12/16 03:56:43;;;;;;;;;;;;;;;26.34;63.92;97857.42;610496;232;67344;-69
2021/12/16 03:59:16;;;;;;;;;;;;;;;26.34;63.69;97862.81;610401;232;66316;-68
2021/12/16 04:01:48;;;;;;;;;;;;;;;26.33;63.56;97867.41;608865;232;48235;-69
2021/12/16 04:04:18;;;;;;;;;;;;;;;26.33;63.17;97862.02;610306;232;44952;-69
2021/12/16 04:06:46;;;;;;;;;;;;;;;26.32;62.14;97876.56;610423;230;65047;-69
2021/12/16 04:09:15;;;;;;;;;;;;;;;26.31;64.10;97871.47;610429;232;64946;-69
2021/12/16 04:11:50;;;;;;;;;;;;;;;26.30;64.38;97877.93;610022;232;45531;-69
2021/12/16 04:14:15;;;;;;;;;;;;;;;26.30;65.68;97883.32;610382;232;65811;-69
2021/12/16 04:16:46;;;;;;;;;;;;;;;26.30;65.63;97876.06;610537;232;44058;-69
2021/12/16 04:19:20;;;;;;;;;;;;;;;26.27;64.50;97876.64;610502;232;44046;-69
2021/12/16 04:21:51;;;;;;;;;;;;;;;26.28;64.02;97878.23;610312;232;65846;-62
2021/12/16 04:24:22;;;;;;;;;;;;;;;26.28;66.83;97880.93;610473;232;64272;-62
2021/12/16 04:26:50;;;;;;;;;;;;;;;26.24;66.93;97873.69;610466;232;67096;-62
2021/12/16 04:29:18;;;;;;;;;;;;;;;26.22;63.72;97876.69;610439;232;65257;-62
2021/12/16 04:31:47;;;;;;;;;;;;;;;26.22;64.64;97876.69;610502;232;65296;-62
2021/12/16 04:34:15;;;;;;;;;;;;;;;26.22;63.56;97881.24;610471;232;66995;-62
2021/12/16 04:36:43;;;;;;;;;;;;;;;26.22;64.20;97887.46;610454;232;62664;-62
2021/12/16 04:39:12;;;;;;;;;;;;;;;26.21;66.16;97885.03;610445;232;67600;-62
2021/12/16 04:41:41;;;;;;;;;;;;;;;26.19;62.92;97882.64;610428;232;67433;-62
2021/12/16 04:44:10;;;;;;;;;;;;;;;26.19;65.17;97876.42;610500;232;62971;-62
2021/12/16 04:46:38;;;;;;;;;;;;;;;26.17;64.98;97875.93;610552;232;66955;-62
2021/12/16 04:49:07;;;;;;;;;;;;;;;26.16;65.95;97883.19;610425;232;65423;-62
2021/12/16 04:51:38;;;;;;;;;;;;;;;26.15;63.72;97878.90;610483;232;42991;-62
2021/12/16 04:54:06;;;;;;;;;;;;;;;26.16;65.72;97879.69;610469;232;67606;-62
2021/12/16 04:56:35;;;;;;;;;;;;;;;26.14;64.94;97885.38;610454;230;64606;-62
2021/12/16 04:59:11;;;;;;;;;;;;;;;26.14;65.02;97890.77;610504;232;42965;-62
2021/12/16 05:01:37;;;;;;;;;;;;;;;26.14;64.42;97888.08;610360;232;65531;-62
2021/12/16 05:04:05;;;;;;;;;;;;;;;26.12;64.48;97877.57;610457;232;66652;-62
2021/12/16 05:06:33;;;;;;;;;;;;;;;26.11;65.45;97892.14;610485;232;64987;-62
2021/12/16 05:09:01;;;;;;;;;;;;;;;26.10;66.07;97890.52;610439;232;68002;-62
2021/12/16 05:11:35;;;;;;;;;;;;;;;26.07;64.27;97890.28;610378;232;44037;-62
2021/12/16 05:14:05;;;;;;;;;;;;;;;26.06;65.04;97888.69;610424;232;62487;-61
2021/12/16 05:16:32;;;;;;;;;;;;;;;26.06;65.71;97889.48;610453;232;67124;-61
2021/12/16 05:19:00;;;;;;;;;;;;;;;26.08;64.66;97897.27;610427;232;67596;-62
2021/12/16 05:21:46;;;;;;;;;;;;;;;26.09;65.39;97894.30;610572;232;42614;-62
2021/12/16 05:24:28;;;;;;;;;;;;;;;26.07;62.96;97891.08;610407;232;45717;-68
2021/12/16 05:27:01;;;;;;;;;;;;;;;26.07;66.30;97895.67;610331;232;44817;-69
2021/12/16 05:29:29;;;;;;;;;;;;;;;26.08;64.83;97894.57;610431;232;64899;-69
2021/12/16 05:31:58;;;;;;;;;;;;;;;26.06;61.44;97899.46;610484;232;48941;-69
2021/12/16 05:34:27;;;;;;;;;;;;;;;26.08;66.91;97900.79;610427;232;67167;-69
2021/12/16 05:36:55;;;;;;;;;;;;;;;26.05;66.39;97900.53;610472;232;65013;-69
2021/12/16 05:39:24;;;;;;;;;;;;;;;26.02;66.25;97896.51;610518;232;65384;-69
2021/12/16 05:41:53;;;;;;;;;;;;;;;26.04;63.33;97896.24;609919;232;47001;-69
2021/12/16 05:44:23;;;;;;;;;;;;;;;26.04;65.61;97893.55;610473;232;42623;-69
2021/12/16 05:46:50;;;;;;;;;;;;;;;26.04;65.75;97897.04;610430;232;67308;-69
2021/12/16 05:49:18;;;;;;;;;;;;;;;26.04;65.31;97897.04;610349;232;66877;-69
2021/12/16 05:51:49;;;;;;;;;;;;;;;26.04;63.98;97899.73;610477;232;63701;-69
2021/12/16 05:54:18;;;;;;;;;;;;;;;26.06;66.73;97899.46;610434;232;65844;-69
2021/12/16 05:56:48;;;;;;;;;;;;;;;26.05;65.26;97898.63;610239;232;48010;-69
2021/12/16 05:59:20;;;;;;;;;;;;;;;26.07;66.75;97903.75;608953;232;65586;-69
2021/12/16 06:01:49;;;;;;;;;;;;;;;26.09;62.57;97909.67;608962;233;68902;-70
2021/12/16 06:04:20;;;;;;;;;;;;;;;26.08;64.95;97905.34;608920;233;69078;-69
2021/12/16 06:06:49;;;;;;;;;;;;;;;26.08;64.90;97903.48;609039;232;42504;-62
2021/12/16 06:09:17;;;;;;;;;;;;;;;26.09;63.88;97901.59;608842;233;67471;-62
2021/12/16 06:11:45;;;;;;;;;;;;;;;26.09;64.72;97905.08;608919;233;66556;-62
2021/12/16 06:14:21;;;;;;;;;;;;;;;26.10;63.87;97897.80;608862;233;65209;-62
2021/12/16 06:27:50;;;;;;;;;;;;;;;26.13;63.99;97903.41;608970;233;68413;-61
2021/12/16 06:30:19;;;;;;;;;;;;;;;26.13;63.04;97908.00;608913;233;62452;-62
2021/12/16 06:32:47;;;;;;;;;;;;;;;26.15;65.75;97903.14;608912;233;66546;-62
2021/12/16 06:35:14;;;;;;;;;;;;;;;26.15;63.50;97899.65;608900;233;66942;-62
2021/12/16 06:37:42;;;;;;;;;;;;;;;26.16;65.14;97902.05;608978;233;65045;-62
2021/12/16 06:40:16;;;;;;;;;;;;;;;26.17;64.87;97902.88;608767;233;48442;-62
2021/12/16 06:43:06;;;;;;;;;;;;;;;26.17;64.49;97906.36;608221;233;50671;-61
2021/12/16 06:45:37;;;;;;;;;;;;;;;26.17;64.52;97905.56;608940;233;63878;-61
2021/12/16 06:48:13;;;;;;;;;;;;;;;26.16;64.45;97904.73;608891;232;68503;-62
2021/12/16 06:50:47;;;;;;;;;;;;;;;26.17;66.71;97900.97;608544;233;66425;-62
2021/12/16 06:53:08;;;;;;;;;;;;;;;26.17;63.97;97894.79;608469;233;65198;-62
2021/12/16 07:01:31;;;;;;;;;;;;;;;26.10;58.51;97898.59;608382;232;65095;-63
2021/12/16 07:03:51;;;;;;;;;;;;;;;26.09;63.30;97904.28;609422;232;66521;-64
2021/12/16 07:06:17;;;;;;;;;;;;;;;26.08;63.41;97902.66;610013;232;68685;-64
2021/12/16 07:08:45;;;;;;;;;;;;;;;26.07;62.44;97906.45;610027;232;62963;-62
2021/12/16 07:11:13;;;;;;;;;;;;;;;26.08;62.16;97908.05;599430;236;68662;-62
2021/12/16 07:13:42;;;;;;;;;;;;;;;26.08;61.92;97906.17;596252;238;68645;-61
2021/12/16 07:16:10;;;;;;;;;;;;;;;26.08;61.36;97908.88;599308;236;63013;-66
2021/12/16 07:18:38;;;;;;;;;;;;;;;26.06;62.02;97905.64;596691;237;68787;-69
2021/12/16 07:21:07;;;;;;;;;;;;;;;26.06;61.79;97899.46;599301;236;68664;-65
2021/12/16 07:23:34;;;;;;;;;;;;;;;26.01;59.21;97896.81;596333;238;62954;-65
2021/12/16 07:26:02;;;;;;;;;;;;;;;25.97;58.57;97906.52;599395;234;68564;-66
2021/12/16 07:28:29;;;;;;;;;;;;;;;25.96;57.61;97904.92;596258;235;68907;-66
2021/12/16 07:30:57;;;;;;;;;;;;;;;25.94;56.71;97904.40;599330;236;63845;-65
2021/12/16 07:33:25;;;;;;;;;;;;;;;25.95;56.93;97906.02;596251;238;68741;-65
2021/12/16 07:35:53;;;;;;;;;;;;;;;25.93;57.32;97894.72;599342;236;68510;-65
2021/12/16 07:38:21;;;;;;;;;;;;;;;25.94;56.33;97902.50;596381;238;62933;-67
2021/12/16 07:40:50;;;;;;;;;;;;;;;25.95;57.53;97904.13;599386;234;68836;-66
2021/12/16 07:43:53;;;;;;;;;;;;;;;25.93;57.19;97908.98;595950;238;68555;-65
2021/12/16 07:45:59;;;;;;;;;;;;;;;25.95;57.68;97903.33;598568;236;62816;-66
2021/12/16 07:48:27;;;;;;;;;;;;;;;25.94;56.86;97901.70;596262;238;66500;-65
2021/12/16 07:50:56;;;;;;;;;;;;;;;25.93;56.56;97900.91;599335;236;69037;-65
2021/12/16 07:53:24;;;;;;;;;;;;;;;25.95;57.88;97903.33;596751;237;62837;-65
2021/12/16 07:55:52;;;;;;;;;;;;;;;25.95;58.74;97908.72;599307;236;68800;-71
2021/12/16 07:58:19;;;;;;;;;;;;;;;25.96;59.07;97905.72;594344;238;68516;-71
2021/12/16 08:00:47;;;;;;;;;;;;;;;25.95;58.58;97903.33;599418;236;62954;-73
2021/12/16 08:03:15;;;;;;;;;;;;;;;25.95;55.92;97911.41;592792;239;66496;-72
2021/12/16 08:05:46;;;;;;;;;;;;;;;25.94;58.31;97909.78;599444;236;68794;-72
2021/12/16 08:08:14;;;;;;;;;;;;;;;25.94;57.91;97902.50;593207;239;65060;-71
2021/12/16 08:10:43;;;;;;;;;;;;;;;25.95;58.66;97908.72;599302;236;68498;-73
2021/12/16 08:13:13;;;;;;;;;;;;;;;25.98;56.96;97914.34;593172;239;68654;-72
2021/12/16 08:15:42;;;;;;;;;;;;;;;26.00;59.64;97906.78;599376;236;64867;-71
2021/12/16 08:18:09;;;;;;;;;;;;;;;26.03;61.22;97908.11;592827;239;66812;-71
2021/12/16 08:20:37;;;;;;;;;;;;;;;26.01;61.60;97907.58;599394;236;68802;-69
2021/12/16 08:23:05;;;;;;;;;;;;;;;26.00;60.45;97905.95;592814;237;65043;-69
2021/12/16 08:25:33;;;;;;;;;;;;;;;26.00;61.85;97904.09;599340;236;68586;-69
2021/12/16 08:28:03;;;;;;;;;;;;;;;26.01;63.17;97900.30;592727;239;68685;-69
2021/12/16 08:30:32;;;;;;;;;;;;;;;26.00;61.31;97898.70;599326;236;64896;-66
2021/12/16 08:33:04;;;;;;;;;;;;;;;25.96;58.75;97896.84;599700;236;68571;-68
2021/12/16 08:35:29;;;;;;;;;;;;;;;26.01;61.24;97899.50;599230;236;68710;-68
2021/12/16 08:37:56;;;;;;;;;;;;;;;25.99;61.33;97898.97;592788;239;64919;-69
2021/12/16 08:40:25;;;;;;;;;;;;;;;25.98;60.84;97897.37;599316;236;68686;-67
2021/12/16 08:42:53;;;;;;;;;;;;;;;25.99;61.09;97891.69;592848;239;66555;-72
2021/12/16 08:45:22;;;;;;;;;;;;;;;26.00;61.78;97896.02;599328;236;64807;-72
2021/12/16 08:47:49;;;;;;;;;;;;;;;26.02;59.89;97895.71;593065;236;68905;-73
2021/12/16 08:50:18;;;;;;;;;;;;;;;26.03;61.81;97891.95;599301;236;68726;-72
2021/12/16 08:52:46;;;;;;;;;;;;;;;26.01;61.49;97889.53;592562;239;64974;-73
2021/12/16 08:55:14;;;;;;;;;;;;;;;26.03;62.19;97894.64;599415;236;68711;-72
2021/12/16 08:57:42;;;;;;;;;;;;;;;26.03;61.84;97891.95;592896;238;69037;-71
2021/12/16 09:00:11;;;;;;;;;;;;;;;26.02;62.56;97898.41;599334;236;62808;-72
2021/12/16 09:02:39;;;;;;;;;;;;;;;26.03;62.39;97894.64;593165;239;66141;-71
2021/12/16 09:05:07;;;;;;;;;;;;;;;26.04;63.77;97893.55;599373;236;66499;-72
2021/12/16 09:07:34;;;;;;;;;;;;;;;26.04;60.79;97896.24;592638;239;62943;-72
2021/12/16 09:10:02;;;;;;;;;;;;;;;26.05;61.48;97884.37;599352;236;68342;-73
2021/12/16 09:15:09;;;;;;;;;;;;;;;26.09;61.23;97872.75;599229;234;64922;-74
2021/12/16 09:17:37;;;;;;;;;;;;;;;26.08;61.49;97871.16;592592;239;66325;-74
2021/12/16 09:20:05;;;;;;;;;;;;;;;26.10;62.66;97863.58;599393;236;67472;-69
2021/12/16 09:22:32;;;;;;;;;;;;;;;26.11;60.72;97856.32;592724;239;65070;-68
2021/12/16 09:25:00;;;;;;;;;;;;;;;26.13;61.72;97851.43;599450;236;68549;-71
2021/12/16 09:27:28;;;;;;;;;;;;;;;26.12;61.26;97850.63;593111;239;68718;-71
2021/12/16 09:29:57;;;;;;;;;;;;;;;26.13;61.64;97846.84;599325;236;64926;-73
2021/12/16 09:32:28;;;;;;;;;;;;;;;26.15;59.90;97837.69;592805;239;69061;-71
2021/12/16 09:34:54;;;;;;;;;;;;;;;26.15;61.55;97837.69;599270;236;68583;-73
2021/12/16 09:37:22;;;;;;;;;;;;;;;26.13;60.55;97838.76;592880;239;65049;-72
2021/12/16 09:39:49;;;;;;;;;;;;;;;26.15;59.99;97833.09;599383;236;68689;-72
2021/12/16 09:42:17;;;;;;;;;;;;;;;26.17;60.42;97827.44;592725;239;68505;-71
2021/12/16 09:44:45;;;;;;;;;;;;;;;26.17;61.52;97820.16;599315;236;64889;-71
2021/12/16 09:47:14;;;;;;;;;;;;;;;26.19;60.32;97820.68;592835;237;68583;-71
2021/12/16 09:49:41;;;;;;;;;;;;;;;26.19;59.63;97817.98;599290;236;66664;-73
2021/12/16 09:52:11;;;;;;;;;;;;;;;26.17;59.40;97812.08;592869;239;63081;-70
2021/12/16 09:54:39;;;;;;;;;;;;;;;26.20;60.46;97814.19;599315;236;68813;-70
2021/12/16 09:57:06;;;;;;;;;;;;;;;26.18;59.49;97812.87;592768;238;68742;-70
2021/12/16 09:59:35;;;;;;;;;;;;;;;26.20;60.41;97819.58;599337;236;65165;-69
2021/12/16 10:02:04;;;;;;;;;;;;;;;26.20;59.47;97822.27;592799;239;68946;-70
2021/12/16 10:04:34;;;;;;;;;;;;;;;26.21;59.61;97823.07;599348;236;66520;-69
2021/12/16 10:07:03;;;;;;;;;;;;;;;26.22;60.72;97824.66;592786;239;66070;-69
2021/12/16 10:09:30;;;;;;;;;;;;;;;26.23;60.43;97818.20;599371;236;67465;-69
2021/12/16 10:12:01;;;;;;;;;;;;;;;26.24;60.72;97820.59;592809;239;66491;-69
2021/12/16 10:19:44;;;;;;;;;;;;;;;26.26;58.94;97828.41;599333;234;67120;-61
2021/12/16 10:22:17;;;;;;;;;;;;;;;26.27;60.68;97819.23;592809;239;65147;-60
2021/12/16 10:24:44;;;;;;;;;;;;;;;26.28;59.83;97823.55;599324;236;68687;-62
2021/12/16 10:27:13;;;;;;;;;;;;;;;26.28;59.96;97826.23;592814;239;68697;-62
2021/12/16 10:29:44;;;;;;;;;;;;;;;26.29;61.22;97815.16;599316;236;43731;-61
2021/12/16 10:32:29;;;;;;;;;;;;;;;26.28;60.08;97826.23;593043;239;66541;-62
2021/12/16 10:34:58;;;;;;;;;;;;;;;26.28;61.79;97810.88;599425;236;68570;-60
2021/12/16 10:37:32;;;;;;;;;;;;;;;26.28;61.99;97799.30;592851;239;63801;-62
2021/12/16 10:40:01;;;;;;;;;;;;;;;26.28;60.15;97799.30;599347;236;66438;-60
2021/12/16 10:42:30;;;;;;;;;;;;;;;26.31;60.90;97799.52;592228;239;66404;-60
2021/12/16 10:44:58;;;;;;;;;;;;;;;26.30;61.49;97806.00;598776;236;64920;-62
2021/12/16 10:47:26;;;;;;;;;;;;;;;26.32;59.48;97801.11;592672;237;68804;-62
2021/12/16 10:49:53;;;;;;;;;;;;;;;26.31;61.34;97804.91;599278;236;66570;-68
2021/12/16 10:52:32;;;;;;;;;;;;;;;26.32;57.29;97801.11;592779;239;65312;-69
2021/12/16 10:54:56;;;;;;;;;;;;;;;26.35;56.89;97799.73;598967;236;66512;-69
2021/12/16 10:57:25;;;;;;;;;;;;;;;26.37;57.07;97800.26;592793;238;68536;-69
2021/12/16 10:59:54;;;;;;;;;;;;;;;26.39;56.90;97799.98;599006;236;64907;-69
2021/12/16 11:02:27;;;;;;;;;;;;;;;26.40;57.17;97794.29;593016;239;66591;-68
2021/12/16 11:05:02;;;;;;;;;;;;;;;26.41;57.73;97795.09;599362;236;68556;-67
2021/12/16 11:07:34;;;;;;;;;;;;;;;26.43;59.52;97793.71;593063;236;62969;-71
2021/12/16 11:10:03;;;;;;;;;;;;;;;26.44;59.10;97798.03;599135;236;69451;-71
2021/12/16 11:12:33;;;;;;;;;;;;;;;26.47;58.14;97800.15;593034;239;68518;-71
2021/12/16 11:15:02;;;;;;;;;;;;;;;26.44;59.14;97792.64;598838;236;62840;-63
2021/12/16 11:17:37;;;;;;;;;;;;;;;26.48;58.37;97795.55;592982;237;69638;-63
2021/12/16 11:20:09;;;;;;;;;;;;;;;26.51;58.86;97797.70;599526;236;66456;-61
2021/12/16 11:22:38;;;;;;;;;;;;;;;26.53;59.35;97784.74;597638;236;65113;-66
2021/12/16 11:25:23;;;;;;;;;;;;;;;26.46;58.05;97790.44;592875;239;68887;-67
2021/12/16 11:27:54;;;;;;;;;;;;;;;26.56;57.51;97789.55;599322;236;68375;-69
2021/12/16 11:30:30;;;;;;;;;;;;;;;26.57;57.44;97788.45;599430;236;44997;-67
2021/12/16 11:33:06;;;;;;;;;;;;;;;26.52;58.96;97793.93;593185;239;68858;-67
2021/12/16 11:35:35;;;;;;;;;;;;;;;26.52;59.81;97783.95;599424;236;66763;-71
2021/12/16 11:38:03;;;;;;;;;;;;;;;26.54;57.99;97780.95;593188;239;62730;-66
2021/12/16 11:40:32;;;;;;;;;;;;;;;26.54;57.21;97786.34;599434;236;66456;-65
2021/12/16 11:43:01;;;;;;;;;;;;;;;26.55;56.62;97777.18;592400;239;68531;-64
2021/12/16 11:45:37;;;;;;;;;;;;;;;26.50;56.50;97774.52;599399;236;64884;-66
2021/12/16 11:48:05;;;;;;;;;;;;;;;26.56;55.84;97776.08;592866;239;68752;-65
2021/12/16 11:50:34;;;;;;;;;;;;;;;26.58;57.18;97775.80;599274;236;68621;-67
2021/12/16 11:53:02;;;;;;;;;;;;;;;26.50;57.70;97775.31;593183;239;64934;-66
2021/12/16 11:55:30;;;;;;;;;;;;;;;26.53;58.28;97768.57;599542;234;66271;-65
2021/12/16 11:58:03;;;;;;;;;;;;;;;26.51;57.50;97770.75;604935;234;66279;-63
2021/12/16 12:00:32;;;;;;;;;;;;;;;26.52;57.13;97761.59;606230;234;65213;-67
2021/12/16 12:03:07;;;;;;;;;;;;;;;26.51;56.51;97765.36;606344;234;67635;-66
2021/12/16 12:05:36;;;;;;;;;;;;;;;26.51;55.88;97759.97;606358;234;68431;-72
2021/12/16 12:08:08;;;;;;;;;;;;;;;26.52;55.03;97753.50;606359;234;64956;-70
2021/12/16 12:10:46;;;;;;;;;;;;;;;26.52;54.39;97758.89;606372;234;67519;-67
2021/12/16 12:13:15;;;;;;;;;;;;;;;26.51;54.05;97757.27;606392;234;68580;-66
2021/12/16 12:16:01;;;;;;;;;;;;;;;26.51;53.76;97749.18;606439;234;64885;-64
2021/12/16 12:18:32;;;;;;;;;;;;;;;26.52;54.22;97745.41;606402;233;50530;-67
2021/12/16 12:21:17;;;;;;;;;;;;;;;26.50;54.34;97742.96;606273;234;69494;-64
2021/12/16 12:23:45;;;;;;;;;;;;;;;26.51;54.25;97743.79;606389;234;65306;-66
2021/12/16 12:26:16;;;;;;;;;;;;;;;26.48;53.08;97747.04;606324;234;68738;-66
2021/12/16 12:28:48;;;;;;;;;;;;;;;26.47;51.82;97738.16;606268;234;67252;-66
2021/12/16 12:31:17;;;;;;;;;;;;;;;26.51;54.13;97741.09;606433;234;62702;-66
2021/12/16 12:33:44;;;;;;;;;;;;;;;26.53;54.39;97742.41;606328;234;68854;-67
2021/12/16 12:36:12;;;;;;;;;;;;;;;26.53;54.42;97739.72;606373;234;68346;-67
2021/12/16 12:38:40;;;;;;;;;;;;;;;26.51;54.50;97733.01;606372;234;62886;-67
2021/12/16 12:41:08;;;;;;;;;;;;;;;26.53;54.82;97737.02;606360;234;67252;-66
2021/12/16 12:43:37;;;;;;;;;;;;;;;26.53;54.58;97728.14;606444;234;66477;-65
2021/12/16 12:46:06;;;;;;;;;;;;;;;26.56;53.86;97722.16;606401;234;65050;-66
2021/12/16 12:48:35;;;;;;;;;;;;;;;26.56;54.45;97714.08;606327;234;66702;-66
2021/12/16 12:51:04;;;;;;;;;;;;;;;26.54;54.93;97721.64;606332;234;67044;-66
2021/12/16 12:53:36;;;;;;;;;;;;;;;26.55;54.40;97724.06;606395;234;64960;-66
2021/12/16 12:56:12;;;;;;;;;;;;;;;26.54;54.78;97724.34;606346;234;66780;-66
2021/12/16 12:58:50;;;;;;;;;;;;;;;26.54;55.16;97732.42;606048;234;66646;-66
2021/12/16 13:01:18;;;;;;;;;;;;;;;26.55;55.16;97726.76;606123;234;63091;-67
2021/12/16 13:03:45;;;;;;;;;;;;;;;26.55;55.11;97731.35;606384;234;66448;-67
2021/12/16 13:06:14;;;;;;;;;;;;;;;26.54;54.51;97730.52;606335;234;66224;-68
2021/12/16 13:08:43;;;;;;;;;;;;;;;26.55;54.74;97739.44;606384;234;62755;-68
2021/12/16 13:11:12;;;;;;;;;;;;;;;26.56;54.43;97727.55;606214;234;68289;-67
2021/12/16 13:14:00;;;;;;;;;;;;;;;26.55;54.86;97734.05;606275;234;67048;-67
2021/12/16 13:16:58;;;;;;;;;;;;;;;26.57;54.82;97731.84;605981;234;63019;-66
2021/12/16 13:27:51;;;;;;;;;;;;;;;26.59;54.73;97728.87;600101;236;49370;-68
2021/12/16 13:30:23;;;;;;;;;;;;;;;26.58;55.32;97728.08;599966;236;68800;-68
2021/12/16 13:33:12;;;;;;;;;;;;;;;26.59;54.98;97734.27;599955;236;63826;-68
2021/12/16 13:35:35;;;;;;;;;;;;;;;26.60;55.09;97730.46;600388;233;71268;-68
2021/12/16 13:38:03;;;;;;;;;;;;;;;26.61;54.88;97726.70;606350;234;69016;-69
2021/12/16 13:40:32;;;;;;;;;;;;;;;26.60;53.14;97731.29;606175;234;62981;-69
2021/12/16 13:43:02;;;;;;;;;;;;;;;26.65;54.11;97738.48;606365;234;68515;-72
2021/12/16 13:45:39;;;;;;;;;;;;;;;26.65;54.51;97736.59;606298;234;68714;-73
2021/12/16 13:48:18;;;;;;;;;;;;;;;26.65;54.54;97739.28;606165;234;62905;-72
2021/12/16 14:10:06;;;;;;;;;;;;;;;26.66;55.19;97751.69;604935;234;66974;-72
2021/12/16 14:13:42;;;;;;;;;;;;;;;26.68;55.02;97746.81;603344;234;66110;-72
2021/12/16 14:17:52;;;;;;;;;;;;;;;26.69;55.77;97761.89;604995;234;66398;-72
2021/12/16 14:23:20;;;;;;;;;;;;;;;26.69;55.21;97756.50;603156;234;68707;-74
2021/12/16 14:31:20;;;;;;;;;;;;;;;26.68;55.32;97754.08;604988;234;66467;-71
2021/12/16 14:44:18;;;;;;;;;;;;;;;26.73;55.42;97760.20;604874;234;65325;-70
2021/12/16 14:46:32;;;;;;;;;;;;;;;26.67;56.92;97764.06;603821;234;66565;-68
2021/12/16 14:49:01;;;;;;;;;;;;;;;26.71;55.16;97772.36;604723;234;48616;-69
2021/12/16 14:51:32;;;;;;;;;;;;;;;26.74;54.90;97769.91;604927;234;45039;-67
2021/12/16 14:54:00;;;;;;;;;;;;;;;26.77;54.65;97769.33;605010;234;68786;-66
2021/12/16 14:56:32;;;;;;;;;;;;;;;26.79;55.38;97774.41;604791;234;66672;-67
2021/12/16 14:59:01;;;;;;;;;;;;;;;26.78;56.22;97778.22;605819;234;62993;-64
2021/12/16 15:01:33;;;;;;;;;;;;;;;26.77;56.44;97782.81;606343;234;66610;-66
2021/12/16 15:04:01;;;;;;;;;;;;;;;26.79;55.85;97780.63;606294;234;66647;-66
2021/12/16 15:06:35;;;;;;;;;;;;;;;26.81;56.08;97774.94;606341;234;65052;-66
2021/12/16 15:09:11;;;;;;;;;;;;;;;26.83;56.81;97769.27;606160;234;68652;-67
2021/12/16 15:11:40;;;;;;;;;;;;;;;26.85;55.92;97767.08;605779;234;68723;-67
2021/12/16 15:14:09;;;;;;;;;;;;;;;26.83;57.20;97766.56;606093;234;63819;-66
2021/12/16 15:16:57;;;;;;;;;;;;;;;26.82;55.56;97770.33;606159;234;66538;-68
2021/12/16 15:37:05;;;;;;;;;;;;;;;26.87;56.77;97781.85;606289;234;68838;-67
2021/12/16 15:39:00;;;;;;;;;;;;;;;26.86;56.91;97788.35;599302;234;65057;-66
2021/12/16 15:43:57;;;;;;;;;;;;;;;26.89;55.96;97789.66;606370;234;68806;-61
2021/12/16 15:46:26;;;;;;;;;;;;;;;26.86;55.13;97787.55;606309;234;63185;-60
2021/12/16 15:48:54;;;;;;;;;;;;;;;26.85;54.95;97783.27;606207;234;68461;-60
2021/12/16 15:51:24;;;;;;;;;;;;;;;26.83;54.52;97786.23;606343;234;68741;-62
2021/12/16 15:53:55;;;;;;;;;;;;;;;26.86;55.07;97790.25;606275;234;65241;-59
2021/12/16 15:56:23;;;;;;;;;;;;;;;26.86;54.19;97787.55;606342;234;69056;-59
2021/12/16 15:59:01;;;;;;;;;;;;;;;26.90;55.31;97792.08;606355;234;66338;-63
2021/12/16 16:01:30;;;;;;;;;;;;;;;26.88;56.89;97790.77;606398;234;65160;-68
2021/12/16 16:03:59;;;;;;;;;;;;;;;26.86;54.00;97792.95;606464;234;68785;-69
2021/12/16 16:06:28;;;;;;;;;;;;;;;26.85;53.72;97786.76;606437;234;68691;-68
2021/12/16 16:08:56;;;;;;;;;;;;;;;26.83;54.66;97788.94;606430;234;65197;-68
2021/12/16 16:11:25;;;;;;;;;;;;;;;26.83;54.96;97790.83;606456;234;70174;-68
2021/12/16 16:13:56;;;;;;;;;;;;;;;26.83;55.10;97796.23;606387;234;66730;-69
2021/12/16 16:16:30;;;;;;;;;;;;;;;26.81;55.06;97799.20;606482;234;62948;-68
2021/12/16 16:18:55;;;;;;;;;;;;;;;26.79;55.70;97791.42;606301;234;68039;-68
2021/12/16 16:21:25;;;;;;;;;;;;;;;26.78;56.02;97789.80;606363;234;66703;-69
2021/12/16 16:23:54;;;;;;;;;;;;;;;26.79;55.23;97787.89;606237;234;66496;-69
2021/12/16 16:26:22;;;;;;;;;;;;;;;26.79;55.10;97799.52;606428;234;68810;-68
2021/12/16 16:28:50;;;;;;;;;;;;;;;26.79;56.70;97799.52;606510;234;68710;-69
2021/12/16 16:31:19;;;;;;;;;;;;;;;26.78;56.29;97799.78;606500;234;65076;-68